createdAt,value
2022-08-16T00:01:14.303Z,2.30
2022-08-16T00:03:40.928Z,2.60
2022-08-16T00:06:07.580Z,2.60
2022-08-16T00:08:36.816Z,2.57
2022-08-16T00:11:06.093Z,2.27
2022-08-16T00:13:33.765Z,2.27
2022-08-16T00:17:05.688Z,2.60
2022-08-16T00:18:55.306Z,2.83
2022-08-16T00:21:22.968Z,2.33
2022-08-16T00:23:49.396Z,2.70
2022-08-16T00:26:35.446Z,2.60
2022-08-16T00:29:02.088Z,2.20
2022-08-16T00:31:58.944Z,2.40
2022-08-16T00:34:19.595Z,2.50
2022-08-16T00:36:47.078Z,2.40
2022-08-16T00:39:15.757Z,2.70
2022-08-16T00:41:44.697Z,2.57
2022-08-16T00:44:14.264Z,2.70
2022-08-16T00:46:52.964Z,2.30
2022-08-16T00:49:39.796Z,2.67
2022-08-16T00:52:29.451Z,2.50
2022-08-16T00:54:56.841Z,2.70
2022-08-16T00:57:23.959Z,2.10
2022-08-16T00:59:59.057Z,2.70
2022-08-16T01:02:31.980Z,2.27
2022-08-16T01:05:09.009Z,2.70
2022-08-16T01:07:51.351Z,2.30
2022-08-16T01:10:31.507Z,2.63
2022-08-16T01:13:00.401Z,2.27
2022-08-16T01:15:28.036Z,2.30
2022-08-16T01:17:57.484Z,2.50
2022-08-16T01:20:30.404Z,2.60
2022-08-16T01:23:58.121Z,3.20
2022-08-16T01:26:33.799Z,2.67
2022-08-16T01:29:06.545Z,2.80
2022-08-16T01:31:37.542Z,2.47
2022-08-16T01:34:25.164Z,2.60
2022-08-16T01:37:03.837Z,2.50
2022-08-16T01:39:31.580Z,2.60
2022-08-16T01:42:02.923Z,2.27
2022-08-16T01:44:37.736Z,2.17
2022-08-16T01:47:05.305Z,2.80
2022-08-16T01:49:45.375Z,2.33
2022-08-16T01:52:28.283Z,2.50
2022-08-16T01:54:57.595Z,2.60
2022-08-16T01:57:24.730Z,2.80
2022-08-16T01:59:54.544Z,2.23
2022-08-16T02:02:27.145Z,2.50
2022-08-16T02:04:54.997Z,2.77
2022-08-16T02:07:23.711Z,2.37
2022-08-16T02:09:56.928Z,2.57
2022-08-16T02:12:51.585Z,2.40
2022-08-16T02:15:14.211Z,2.30
2022-08-16T02:17:40.564Z,2.40
2022-08-16T02:20:11.632Z,2.73
2022-08-16T02:22:38.854Z,2.67
2022-08-16T02:25:10.296Z,2.30
2022-08-16T02:27:40.940Z,2.40
2022-08-16T02:30:36.747Z,2.30
2022-08-16T02:33:03.120Z,2.40
2022-08-16T02:35:30.391Z,3.00
2022-08-16T02:37:56.810Z,2.53
2022-08-16T02:40:29.017Z,2.50
2022-08-16T02:42:55.891Z,2.60
2022-08-16T02:45:28.078Z,2.77
2022-08-16T02:48:00.965Z,2.63
2022-08-16T02:50:54.952Z,2.30
2022-08-16T02:53:28.557Z,2.37
2022-08-16T02:55:56.299Z,2.63
2022-08-16T02:58:25.412Z,2.60
2022-08-16T03:00:55.754Z,2.60
2022-08-16T03:03:22.844Z,2.50
2022-08-16T03:05:52.497Z,3.13
2022-08-16T03:08:50.430Z,2.60
2022-08-16T03:11:16.653Z,2.30
2022-08-16T03:13:50.634Z,2.53
2022-08-16T03:16:38.789Z,2.70
2022-08-16T03:19:07.489Z,2.63
2022-08-16T03:21:37.755Z,2.47
2022-08-16T03:24:05.379Z,2.60
2022-08-16T03:26:32.038Z,3.23
2022-08-16T03:28:58.507Z,2.50
2022-08-16T03:31:26.440Z,2.87
2022-08-16T03:34:01.261Z,2.50
2022-08-16T03:36:30.615Z,2.90
2022-08-16T03:38:57.833Z,2.33
2022-08-16T03:41:29.291Z,2.40
2022-08-16T03:44:01.724Z,3.20
2022-08-16T03:46:47.195Z,2.57
2022-08-16T03:49:15.108Z,2.70
2022-08-16T03:51:42.490Z,4.40
2022-08-16T03:54:12.740Z,4.37
2022-08-16T03:56:39.740Z,2.50
2022-08-16T03:59:23.837Z,3.47
2022-08-16T04:01:50.188Z,3.40
2022-08-16T04:04:32.401Z,2.73
2022-08-16T04:07:00.424Z,3.17
2022-08-16T04:09:30.139Z,3.50
2022-08-16T04:11:56.615Z,3.20
2022-08-16T04:14:31.141Z,3.00
2022-08-16T04:17:00.878Z,3.33
2022-08-16T04:19:31.809Z,3.70
2022-08-16T04:21:58.521Z,3.30
2022-08-16T04:24:28.811Z,3.40
2022-08-16T04:26:55.626Z,3.37
2022-08-16T04:29:24.942Z,3.50
2022-08-16T04:31:56.590Z,3.37
2022-08-16T04:34:31.139Z,2.80
2022-08-16T04:37:01.258Z,3.67
2022-08-16T04:39:44.915Z,3.57
2022-08-16T04:42:15.414Z,3.83
2022-08-16T04:44:54.421Z,3.30
2022-08-16T04:47:31.533Z,3.90
2022-08-16T04:49:59.397Z,3.23
2022-08-16T04:52:33.748Z,3.77
2022-08-16T04:55:13.928Z,4.43
2022-08-16T04:57:42.621Z,3.50
2022-08-16T05:00:30.628Z,4.43
2022-08-16T05:03:07.032Z,4.20
2022-08-16T05:05:44.929Z,3.30
2022-08-16T05:08:27.961Z,3.50
2022-08-16T05:11:05.538Z,3.13
2022-08-16T05:13:41.694Z,3.00
2022-08-16T05:16:16.753Z,4.03
2022-08-16T05:18:47.888Z,3.97
2022-08-16T05:21:14.424Z,3.83
2022-08-16T05:23:40.907Z,4.70
2022-08-16T05:26:19.506Z,4.07
2022-08-16T05:28:55.227Z,3.20
2022-08-16T05:31:23.034Z,4.30
2022-08-16T05:33:53.447Z,3.50
2022-08-16T05:36:21.366Z,4.00
2022-08-16T05:38:48.798Z,3.57
2022-08-16T05:41:15.442Z,4.60
2022-08-16T05:43:46.895Z,4.10
2022-08-16T05:46:30.502Z,4.10
2022-08-16T05:49:08.827Z,3.97
2022-08-16T05:51:41.599Z,4.70
2022-08-16T05:54:09.627Z,6.10
2022-08-16T05:56:39.215Z,4.47
2022-08-16T05:59:06.379Z,3.67
2022-08-16T06:01:38.966Z,4.17
2022-08-16T06:04:12.936Z,4.03
2022-08-16T06:06:55.690Z,4.27
2022-08-16T06:09:25.148Z,3.93
2022-08-16T06:11:52.179Z,3.80
2022-08-16T06:14:19.254Z,4.03
2022-08-16T06:16:50.996Z,4.13
2022-08-16T06:19:17.895Z,3.70
2022-08-16T06:21:44.736Z,4.07
2022-08-16T06:24:52.823Z,4.40
2022-08-16T06:26:58.532Z,4.00
2022-08-16T06:29:25.074Z,4.03
2022-08-16T06:31:51.889Z,4.07
2022-08-16T06:34:56.149Z,4.67
2022-08-16T06:37:04.874Z,3.70
2022-08-16T06:39:31.674Z,4.73
2022-08-16T06:42:01.115Z,4.50
2022-08-16T06:44:27.605Z,4.10
2022-08-16T06:46:54.192Z,3.73
2022-08-16T06:49:20.596Z,4.20
2022-08-16T06:51:48.436Z,4.33
2022-08-16T06:54:16.110Z,4.20
2022-08-16T06:56:42.653Z,4.63
2022-08-16T06:59:10.625Z,4.80
2022-08-16T07:01:46.173Z,4.30
2022-08-16T07:04:31.568Z,3.70
2022-08-16T07:07:00.776Z,4.30
2022-08-16T07:09:29.771Z,3.40
2022-08-16T07:12:03.687Z,3.97
2022-08-16T07:14:30.803Z,4.70
2022-08-16T07:16:58.287Z,3.80
2022-08-16T07:20:03.812Z,3.53
2022-08-16T07:22:37.345Z,3.70
2022-08-16T07:24:59.210Z,4.43
2022-08-16T07:27:25.707Z,4.60
2022-08-16T07:29:55.533Z,4.37
2022-08-16T07:32:29.603Z,3.67
2022-08-16T07:34:58.166Z,4.53
2022-08-16T07:37:24.824Z,4.30
2022-08-16T07:39:51.891Z,4.00
2022-08-16T07:42:20.373Z,4.03
2022-08-16T07:44:55.505Z,3.23
2022-08-16T07:47:24.607Z,3.50
2022-08-16T07:49:58.302Z,3.50
2022-08-16T07:52:25.005Z,3.83
2022-08-16T07:54:57.203Z,3.37
2022-08-16T07:57:24.196Z,3.80
2022-08-16T07:59:50.924Z,3.27
2022-08-16T08:02:20.605Z,4.07
2022-08-16T08:04:47.625Z,3.90
2022-08-16T08:07:16.283Z,3.63
2022-08-16T08:09:43.365Z,3.73
2022-08-16T08:12:10.008Z,3.43
2022-08-16T08:14:56.377Z,3.43
2022-08-16T08:17:22.839Z,3.60
2022-08-16T08:19:53.252Z,3.23
2022-08-16T08:22:22.337Z,3.77
2022-08-16T08:24:52.137Z,3.57
2022-08-16T08:27:22.410Z,3.30
2022-08-16T08:30:49.681Z,3.30
2022-08-16T08:32:58.311Z,4.40
2022-08-16T08:35:26.871Z,3.63
2022-08-16T08:37:56.554Z,3.43
2022-08-16T08:40:26.739Z,3.30
2022-08-16T08:43:00.123Z,3.73
2022-08-16T08:45:53.665Z,3.40
2022-08-16T08:48:33.271Z,3.27
2022-08-16T08:51:03.722Z,3.37
2022-08-16T08:53:30.847Z,3.50
2022-08-16T08:55:58.898Z,3.50
2022-08-16T08:58:26.035Z,3.70
2022-08-16T09:01:01.771Z,3.63
2022-08-16T09:03:29.235Z,3.80
2022-08-16T09:05:59.207Z,3.93
2022-08-16T09:08:27.363Z,3.67
2022-08-16T09:11:02.421Z,3.33
2022-08-16T09:13:32.697Z,3.50
2022-08-16T09:16:00.091Z,3.47
2022-08-16T09:18:35.779Z,3.67
2022-08-16T09:21:06.937Z,3.20
2022-08-16T09:23:36.471Z,4.80
2022-08-16T09:26:43.977Z,3.30
2022-08-16T09:29:14.554Z,3.60
2022-08-16T09:31:41.924Z,3.70
2022-08-16T09:34:09.203Z,3.90
2022-08-16T09:36:37.477Z,3.80
2022-08-16T09:39:15.826Z,4.30
2022-08-16T09:41:43.343Z,4.00
2022-08-16T09:45:13.146Z,3.10
2022-08-16T09:47:12.836Z,4.20
2022-08-16T09:49:40.966Z,4.00
2022-08-16T09:52:09.477Z,3.90
2022-08-16T09:54:37.205Z,4.00
2022-08-16T09:57:04.614Z,4.60
2022-08-16T09:59:31.326Z,3.83
2022-08-16T10:02:26.069Z,3.83
2022-08-16T10:04:54.443Z,4.40
2022-08-16T10:07:21.851Z,4.37
2022-08-16T10:09:55.833Z,5.00
2022-08-16T10:12:55.645Z,4.77
2022-08-16T10:15:22.633Z,4.33
2022-08-16T10:18:01.052Z,5.30
2022-08-16T10:20:34.508Z,4.00
2022-08-16T10:23:07.537Z,5.23
2022-08-16T10:27:17.756Z,4.50
2022-08-16T10:28:28.636Z,4.87
2022-08-16T10:30:56.558Z,4.53
2022-08-16T10:33:27.297Z,4.63
2022-08-16T10:36:02.625Z,4.90
2022-08-16T10:38:30.337Z,4.33
2022-08-16T10:41:00.289Z,3.90
2022-08-16T10:43:27.684Z,4.33
2022-08-16T10:46:00.201Z,4.30
2022-08-16T10:48:28.676Z,4.40
2022-08-16T10:50:58.484Z,4.90
2022-08-16T10:53:33.114Z,4.30
2022-08-16T10:56:52.833Z,4.50
2022-08-16T10:58:57.655Z,4.17
2022-08-16T11:02:21.705Z,4.40
2022-08-16T11:10:20.951Z,4.33
2022-08-16T11:12:52.630Z,4.43
2022-08-16T11:15:20.183Z,4.80
2022-08-16T11:18:47.889Z,4.20
2022-08-16T11:20:41.938Z,4.47
2022-08-16T11:23:09.820Z,4.03
2022-08-16T11:31:10.879Z,5.00
2022-08-16T11:33:55.523Z,4.60
2022-08-16T11:36:28.041Z,4.80
2022-08-16T11:38:57.734Z,5.33
2022-08-16T11:41:24.711Z,4.67
2022-08-16T11:43:52.923Z,4.33
2022-08-16T11:46:43.461Z,5.30
2022-08-16T11:49:12.703Z,4.40
2022-08-16T11:51:43.710Z,4.83
2022-08-16T11:54:20.582Z,5.00
2022-08-16T11:56:57.341Z,4.37
2022-08-16T11:59:28.703Z,5.07
2022-08-16T12:02:04.165Z,4.77
2022-08-16T12:04:45.505Z,5.80
2022-08-16T12:07:18.755Z,4.50
2022-08-16T12:09:45.523Z,4.50
2022-08-16T12:12:12.240Z,4.50
2022-08-16T12:14:38.607Z,4.10
2022-08-16T12:17:08.306Z,4.47
2022-08-16T12:19:35.940Z,4.40
2022-08-16T12:22:05.553Z,5.10
2022-08-16T12:24:32.862Z,4.60
2022-08-16T12:27:00.023Z,4.83
2022-08-16T12:29:29.461Z,4.37
2022-08-16T12:31:59.240Z,4.90
2022-08-16T12:34:29.590Z,4.70
2022-08-16T12:36:56.462Z,4.67
2022-08-16T12:39:23.769Z,5.17
2022-08-16T12:41:56.211Z,4.10
2022-08-16T12:44:25.783Z,4.70
2022-08-16T12:47:11.262Z,5.23
2022-08-16T12:49:42.268Z,5.17
2022-08-16T12:52:08.983Z,5.03
2022-08-16T12:54:37.309Z,4.87
2022-08-16T12:57:08.313Z,4.93
2022-08-16T12:59:40.539Z,4.80
2022-08-16T13:02:07.782Z,4.17
2022-08-16T13:04:39.245Z,4.87
2022-08-16T13:07:08.376Z,4.30
2022-08-16T13:09:42.626Z,4.33
2022-08-16T13:12:19.598Z,4.60
2022-08-16T13:14:48.011Z,4.20
2022-08-16T13:17:23.036Z,4.43
2022-08-16T13:20:11.286Z,4.47
2022-08-16T13:22:42.088Z,4.40
2022-08-16T13:25:18.966Z,4.60
2022-08-16T13:28:01.622Z,4.43
2022-08-16T13:30:37.358Z,4.23
2022-08-16T13:33:12.387Z,4.17
2022-08-16T13:35:43.064Z,4.30
2022-08-16T13:38:10.278Z,4.30
2022-08-16T13:40:48.527Z,4.20
2022-08-16T13:43:17.871Z,4.40
2022-08-16T13:45:44.867Z,4.23
2022-08-16T13:48:11.524Z,4.03
2022-08-16T13:50:51.890Z,4.93
2022-08-16T13:53:18.803Z,4.10
2022-08-16T13:55:58.957Z,4.10
2022-08-16T13:58:34.759Z,3.87
2022-08-16T14:01:04.640Z,4.47
2022-08-16T14:03:36.787Z,3.90
2022-08-16T14:06:03.633Z,4.50
2022-08-16T14:08:30.047Z,4.10
2022-08-16T14:10:56.823Z,4.53
2022-08-16T14:13:23.783Z,4.33
2022-08-16T14:15:50.633Z,4.20
2022-08-16T14:18:20.680Z,4.30
2022-08-16T14:20:48.847Z,4.17
2022-08-16T14:23:17.971Z,4.33
2022-08-16T14:25:54.036Z,4.57
2022-08-16T14:28:21.953Z,4.00
2022-08-16T14:30:50.497Z,5.37
2022-08-16T14:33:18.286Z,4.30
2022-08-16T14:35:48.995Z,4.17
2022-08-16T14:38:18.777Z,3.80
2022-08-16T14:40:50.969Z,4.33
2022-08-16T14:43:19.913Z,4.47
2022-08-16T14:45:46.981Z,4.10
2022-08-16T14:48:20.329Z,5.30
2022-08-16T14:50:51.086Z,4.10
2022-08-16T14:53:18.134Z,4.07
2022-08-16T14:55:44.491Z,4.00
2022-08-16T14:58:19.283Z,4.40
2022-08-16T15:00:47.679Z,3.80
2022-08-16T15:03:17.945Z,3.87
2022-08-16T15:05:44.295Z,3.90
2022-08-16T15:08:11.364Z,4.30
2022-08-16T15:10:42.749Z,3.50
2022-08-16T15:13:12.783Z,3.87
2022-08-16T15:15:41.920Z,3.93
2022-08-16T15:18:12.084Z,4.30
2022-08-16T15:20:39.440Z,3.90
2022-08-16T15:23:08.435Z,5.20
2022-08-16T15:25:36.704Z,4.20
2022-08-16T15:28:23.417Z,3.93
2022-08-16T15:30:59.693Z,4.30
2022-08-16T15:33:27.213Z,4.37
2022-08-16T15:35:55.489Z,3.97
2022-08-16T15:38:55.179Z,4.00
2022-08-16T15:41:13.342Z,4.20
2022-08-16T15:43:40.403Z,4.33
2022-08-16T15:46:35.002Z,4.87
2022-08-16T15:49:09.461Z,3.80
2022-08-16T15:51:36.807Z,4.07
2022-08-16T15:54:21.191Z,4.60
2022-08-16T15:56:54.894Z,4.53
2022-08-16T15:59:24.027Z,4.07
2022-08-16T16:01:54.483Z,4.73
2022-08-16T16:04:23.099Z,4.57
2022-08-16T16:06:55.009Z,7.53
2022-08-16T16:09:26.224Z,10.50
2022-08-16T16:12:16.223Z,5.00
2022-08-16T16:14:51.384Z,4.70
2022-08-16T16:17:17.793Z,4.00
2022-08-16T16:19:44.196Z,4.20
2022-08-16T16:22:10.816Z,4.67
2022-08-16T16:24:39.761Z,4.63
2022-08-16T16:27:06.701Z,4.23
2022-08-16T16:29:37.195Z,4.80
2022-08-16T16:32:07.585Z,4.30
2022-08-16T16:34:35.374Z,4.00
2022-08-16T16:37:02.554Z,4.37
2022-08-16T16:39:31.682Z,4.07
2022-08-16T16:41:59.426Z,4.53
2022-08-16T16:44:33.839Z,4.50
2022-08-16T16:47:03.219Z,3.77
2022-08-16T16:49:29.645Z,4.33
2022-08-16T16:52:06.433Z,3.80
2022-08-16T16:54:35.425Z,5.10
2022-08-16T16:57:02.167Z,4.83
2022-08-16T16:59:28.768Z,4.50
2022-08-16T17:02:38.180Z,4.40
2022-08-16T17:04:43.605Z,4.47
2022-08-16T17:07:11.080Z,5.33
2022-08-16T17:09:40.520Z,4.80
2022-08-16T17:12:08.318Z,4.80
2022-08-16T17:14:35.520Z,3.80
2022-08-16T17:17:08.612Z,4.87
2022-08-16T17:19:41.252Z,4.30
2022-08-16T17:22:19.743Z,4.83
2022-08-16T17:24:50.207Z,5.27
2022-08-16T17:27:19.327Z,8.50
2022-08-16T17:30:15.606Z,6.57
2022-08-16T17:32:48.009Z,6.30
2022-08-16T17:35:19.190Z,5.77
2022-08-16T17:37:51.531Z,4.63
2022-08-16T17:40:30.181Z,4.60
2022-08-16T17:43:10.124Z,4.00
2022-08-16T17:45:38.293Z,4.13
2022-08-16T17:48:05.402Z,4.70
2022-08-16T17:50:32.759Z,4.40
2022-08-16T17:53:00.654Z,4.20
2022-08-16T17:55:31.241Z,5.20
2022-08-16T17:57:57.902Z,4.63
2022-08-16T18:00:25.876Z,4.77
2022-08-16T18:02:57.991Z,4.23
2022-08-16T18:05:27.079Z,5.10
2022-08-16T18:07:53.909Z,4.73
2022-08-16T18:10:32.658Z,4.17
2022-08-16T18:13:01.073Z,4.10
2022-08-16T18:15:27.860Z,4.80
2022-08-16T18:17:54.657Z,4.13
2022-08-16T18:20:42.214Z,4.40
2022-08-16T18:23:26.787Z,3.73
2022-08-16T18:25:56.868Z,3.97
2022-08-16T18:28:24.263Z,4.57
2022-08-16T18:30:52.349Z,4.23
2022-08-16T18:33:20.971Z,4.27
2022-08-16T18:35:47.611Z,5.30
2022-08-16T18:38:14.275Z,4.00
2022-08-16T18:40:41.894Z,4.57
2022-08-16T18:43:13.338Z,4.90
2022-08-16T18:45:42.215Z,4.43
2022-08-16T18:48:10.722Z,4.37
2022-08-16T18:51:03.120Z,4.90
2022-08-16T18:53:27.983Z,5.00
2022-08-16T18:55:57.082Z,4.43
2022-08-16T18:58:24.578Z,4.20
2022-08-16T19:00:56.697Z,4.70
2022-08-16T19:03:30.084Z,5.00
2022-08-16T19:06:04.464Z,5.00
2022-08-16T19:08:31.616Z,4.80
2022-08-16T19:10:58.032Z,4.00
2022-08-16T19:13:26.839Z,4.83
2022-08-16T19:15:55.933Z,4.53
2022-08-16T19:18:25.087Z,4.90
2022-08-16T19:20:54.507Z,4.30
2022-08-16T19:23:24.512Z,5.00
2022-08-16T19:25:57.159Z,4.93
2022-08-16T19:28:57.910Z,5.33
2022-08-16T19:31:29.240Z,4.77
2022-08-16T19:33:56.638Z,5.00
2022-08-16T19:36:31.068Z,5.20
2022-08-16T19:39:05.471Z,5.13
2022-08-16T19:41:34.330Z,4.60
2022-08-16T19:44:00.711Z,5.40
2022-08-16T19:46:27.061Z,4.87
2022-08-16T19:48:53.409Z,5.60
2022-08-16T19:51:19.778Z,5.70
2022-08-16T19:53:46.133Z,5.90
2022-08-16T19:56:12.574Z,5.20
2022-08-16T19:58:47.352Z,5.10
2022-08-16T20:01:25.318Z,4.53
2022-08-16T20:03:51.876Z,5.20
2022-08-16T20:06:38.086Z,5.07
2022-08-16T20:09:04.937Z,5.17
2022-08-16T20:11:31.479Z,4.90
2022-08-16T20:13:58.088Z,5.30
2022-08-16T20:16:24.502Z,5.17
2022-08-16T20:18:51.170Z,5.40
2022-08-16T20:21:18.043Z,5.57
2022-08-16T20:23:44.463Z,4.90
2022-08-16T20:26:10.799Z,5.40
2022-08-16T20:28:51.684Z,5.27
2022-08-16T20:31:19.806Z,4.60
2022-08-16T20:33:46.382Z,5.10
2022-08-16T20:36:16.102Z,5.40
2022-08-16T20:38:45.733Z,5.10
2022-08-16T20:41:12.450Z,4.90
2022-08-16T20:43:38.886Z,5.50
2022-08-16T20:46:05.397Z,5.00
2022-08-16T20:48:31.721Z,6.23
2022-08-16T20:50:58.108Z,6.13
2022-08-16T20:53:24.440Z,5.90
2022-08-16T20:55:50.867Z,5.43
2022-08-16T20:58:17.198Z,5.27
2022-08-16T21:00:45.255Z,4.63
2022-08-16T21:03:13.007Z,4.83
2022-08-16T21:05:39.508Z,5.73
2022-08-16T21:08:37.797Z,4.93
2022-08-16T21:10:52.524Z,6.40
2022-08-16T21:13:20.925Z,5.23
2022-08-16T21:15:47.479Z,5.37
2022-08-16T21:18:13.811Z,4.90
2022-08-16T21:20:40.215Z,5.10
2022-08-16T21:23:08.695Z,5.80
2022-08-16T21:25:36.402Z,5.67
2022-08-16T21:28:38.677Z,6.03
2022-08-16T21:30:52.335Z,5.40
2022-08-16T21:33:19.702Z,5.90
2022-08-16T21:35:47.739Z,6.13
2022-08-16T21:38:29.857Z,5.13
2022-08-16T21:40:57.038Z,5.70
2022-08-16T21:43:25.278Z,5.87
2022-08-16T21:45:54.176Z,6.13
2022-08-16T21:48:34.392Z,6.10
2022-08-16T21:51:06.122Z,6.30
2022-08-16T21:53:33.145Z,6.10
2022-08-16T21:56:00.787Z,7.00
2022-08-16T21:58:27.514Z,5.70
2022-08-16T22:00:53.839Z,6.20
2022-08-16T22:03:20.993Z,5.20
2022-08-16T22:06:11.661Z,5.20
2022-08-16T22:08:35.673Z,5.20
2022-08-16T22:11:12.205Z,5.13
2022-08-16T22:13:38.661Z,5.70
2022-08-16T22:16:07.481Z,5.93
2022-08-16T22:18:33.836Z,6.13
2022-08-16T22:21:00.191Z,5.83
2022-08-16T22:23:26.767Z,5.23
2022-08-16T22:25:55.014Z,5.60
2022-08-16T22:28:22.778Z,5.20
2022-08-16T22:30:49.732Z,5.20
2022-08-16T22:33:19.607Z,4.70
2022-08-16T22:36:12.717Z,4.63
2022-08-16T22:38:56.254Z,5.20
2022-08-16T22:41:24.765Z,5.40
2022-08-16T22:43:51.395Z,5.40
2022-08-16T22:46:19.292Z,5.30
2022-08-16T22:48:45.789Z,6.00
2022-08-16T22:51:12.955Z,5.60
2022-08-16T22:53:39.356Z,5.80
2022-08-16T22:56:05.911Z,5.30
2022-08-16T22:58:36.362Z,6.27
2022-08-16T23:01:04.353Z,5.67
2022-08-16T23:03:30.853Z,5.67
2022-08-16T23:06:00.275Z,5.77
2022-08-16T23:08:38.676Z,5.90
2022-08-16T23:11:20.775Z,5.83
2022-08-16T23:13:53.185Z,5.80
2022-08-16T23:16:33.629Z,5.90
2022-08-16T23:19:09.593Z,5.40
2022-08-16T23:21:38.081Z,5.90
2022-08-16T23:24:06.394Z,5.53
2022-08-16T23:26:47.312Z,5.93
2022-08-16T23:29:24.013Z,5.50
2022-08-16T23:31:55.795Z,5.73
2022-08-16T23:34:22.579Z,6.03
2022-08-16T23:36:48.977Z,6.23
2022-08-16T23:39:15.445Z,6.00
2022-08-16T23:41:41.967Z,5.47
2022-08-16T23:44:57.429Z,6.03
2022-08-16T23:46:55.214Z,5.90
2022-08-16T23:50:01.897Z,6.40
2022-08-16T23:52:10.048Z,6.60
2022-08-16T23:54:36.701Z,6.67
2022-08-16T23:57:03.449Z,6.00
2022-08-16T23:59:29.832Z,5.80
